createdAt,value
2023-03-05T00:01:28.941Z,1.60
2023-03-05T00:03:58.491Z,1.50
2023-03-05T00:06:27.047Z,1.60
2023-03-05T00:08:56.882Z,1.60
2023-03-05T00:11:25.676Z,1.60
2023-03-05T00:13:53.729Z,1.60
2023-03-05T00:16:21.908Z,1.80
2023-03-05T00:18:49.805Z,1.70
2023-03-05T00:21:20.821Z,1.70
2023-03-05T00:23:48.586Z,1.90
2023-03-05T00:26:16.307Z,1.47
2023-03-05T00:28:44.010Z,1.80
2023-03-05T00:31:11.797Z,1.70
2023-03-05T00:33:39.578Z,1.70
2023-03-05T00:36:08.011Z,1.60
2023-03-05T00:38:37.196Z,1.57
2023-03-05T00:41:05.275Z,1.40
2023-03-05T00:43:32.991Z,1.60
2023-03-05T00:46:00.692Z,1.70
2023-03-05T00:48:28.431Z,1.70
2023-03-05T00:50:56.150Z,1.70
2023-03-05T00:53:24.322Z,1.60
2023-03-05T00:55:53.444Z,1.80
2023-03-05T00:58:21.212Z,1.60
2023-03-05T01:00:50.723Z,1.50
2023-03-05T01:03:18.555Z,1.50
2023-03-05T01:05:46.323Z,1.50
2023-03-05T01:08:14.026Z,1.70
2023-03-05T01:10:41.793Z,1.67
2023-03-05T01:13:11.054Z,1.80
2023-03-05T01:15:38.864Z,1.70
2023-03-05T01:18:07.052Z,1.47
2023-03-05T01:20:34.820Z,1.40
2023-03-05T01:23:02.944Z,1.77
2023-03-05T01:25:30.802Z,1.60
2023-03-05T01:27:58.647Z,1.80
2023-03-05T01:30:27.773Z,1.70
2023-03-05T01:32:55.877Z,1.70
2023-03-05T01:35:24.839Z,1.80
2023-03-05T01:37:52.840Z,1.50
2023-03-05T01:40:22.451Z,1.70
2023-03-05T01:42:50.790Z,1.60
2023-03-05T01:45:19.846Z,1.50
2023-03-05T01:47:49.115Z,1.90
2023-03-05T01:50:18.126Z,1.70
2023-03-05T01:52:47.631Z,1.70
2023-03-05T01:55:17.470Z,1.90
2023-03-05T01:57:46.149Z,1.60
2023-03-05T02:00:15.743Z,1.60
2023-03-05T02:02:43.891Z,1.70
2023-03-05T02:05:14.396Z,1.67
2023-03-05T02:07:43.091Z,1.70
2023-03-05T02:10:17.959Z,1.77
2023-03-05T02:12:45.810Z,1.80
2023-03-05T02:15:13.545Z,1.80
2023-03-05T02:17:41.295Z,1.87
2023-03-05T02:20:10.217Z,1.80
2023-03-05T02:22:39.467Z,1.80
2023-03-05T02:25:14.429Z,1.70
2023-03-05T02:27:43.878Z,1.90
2023-03-05T02:30:12.678Z,1.70
2023-03-05T02:32:40.516Z,1.80
2023-03-05T02:35:08.943Z,1.83
2023-03-05T02:37:36.665Z,1.80
2023-03-05T02:40:06.324Z,1.60
2023-03-05T02:42:34.275Z,1.60
2023-03-05T02:45:02.070Z,1.73
2023-03-05T02:47:29.875Z,1.80
2023-03-05T02:49:57.651Z,1.80
2023-03-05T02:52:25.704Z,1.80
2023-03-05T02:54:53.649Z,1.80
2023-03-05T02:57:22.940Z,1.50
2023-03-05T02:59:50.777Z,1.60
2023-03-05T03:02:18.710Z,1.20
2023-03-05T03:04:46.450Z,1.40
2023-03-05T03:07:14.601Z,1.60
2023-03-05T03:09:42.955Z,1.60
2023-03-05T03:12:11.330Z,1.50
2023-03-05T03:14:41.438Z,1.77
2023-03-05T03:17:10.354Z,1.50
2023-03-05T03:19:38.461Z,1.47
2023-03-05T03:22:06.414Z,1.63
2023-03-05T03:24:35.197Z,1.43
2023-03-05T03:27:03.270Z,1.70
2023-03-05T03:29:31.282Z,1.70
2023-03-05T03:32:00.474Z,1.70
2023-03-05T03:34:28.551Z,1.87
2023-03-05T03:36:56.253Z,1.80
2023-03-05T03:39:25.530Z,1.70
2023-03-05T03:41:54.035Z,1.70
2023-03-05T03:44:22.261Z,1.70
2023-03-05T03:46:51.231Z,1.70
2023-03-05T03:49:21.215Z,1.80
2023-03-05T03:51:49.731Z,1.80
2023-03-05T03:54:17.797Z,1.80
2023-03-05T03:56:45.457Z,1.80
2023-03-05T03:59:13.525Z,1.70
2023-03-05T04:01:41.410Z,1.60
2023-03-05T04:04:09.204Z,1.50
2023-03-05T04:06:38.434Z,1.60
2023-03-05T04:09:08.362Z,1.70
2023-03-05T04:11:36.441Z,1.63
2023-03-05T04:14:04.341Z,1.70
2023-03-05T04:16:32.177Z,1.80
2023-03-05T04:18:59.906Z,1.60
2023-03-05T04:21:27.673Z,1.60
2023-03-05T04:23:56.778Z,1.70
2023-03-05T04:26:24.521Z,1.80
2023-03-05T04:28:52.257Z,1.70
2023-03-05T04:31:20.703Z,1.87
2023-03-05T04:33:48.499Z,1.70
2023-03-05T04:36:16.298Z,1.60
2023-03-05T04:38:44.020Z,1.63
2023-03-05T04:41:13.166Z,1.50
2023-03-05T04:43:40.902Z,1.60
2023-03-05T04:46:08.689Z,1.53
2023-03-05T04:48:36.437Z,1.70
2023-03-05T04:51:04.221Z,1.80
2023-03-05T04:53:31.926Z,1.70
2023-03-05T04:56:01.605Z,1.70
2023-03-05T04:58:30.809Z,1.50
2023-03-05T05:01:01.711Z,1.60
2023-03-05T05:03:29.503Z,1.50
2023-03-05T05:05:57.797Z,1.60
2023-03-05T05:08:25.485Z,1.80
2023-03-05T05:10:57.023Z,1.80
2023-03-05T05:13:24.880Z,1.60
2023-03-05T05:15:54.198Z,1.80
2023-03-05T05:18:22.185Z,1.60
2023-03-05T05:20:50.043Z,1.70
2023-03-05T05:23:18.510Z,1.60
2023-03-05T05:25:46.658Z,1.60
2023-03-05T05:28:14.353Z,1.70
2023-03-05T05:30:42.092Z,1.87
2023-03-05T05:33:11.288Z,1.70
2023-03-05T05:35:40.407Z,2.00
2023-03-05T05:38:08.155Z,1.60
2023-03-05T05:40:35.966Z,1.63
2023-03-05T05:43:03.974Z,1.50
2023-03-05T05:45:31.751Z,1.50
2023-03-05T05:47:59.619Z,1.80
2023-03-05T05:50:28.750Z,1.83
2023-03-05T05:52:56.794Z,1.70
2023-03-05T05:55:24.504Z,1.60
2023-03-05T05:57:52.317Z,1.50
2023-03-05T06:00:20.397Z,1.50
2023-03-05T06:02:48.273Z,1.40
2023-03-05T06:05:16.166Z,1.50
2023-03-05T06:07:45.366Z,1.70
2023-03-05T06:10:13.243Z,1.70
2023-03-05T06:12:41.049Z,1.70
2023-03-05T06:15:09.227Z,1.50
2023-03-05T06:17:36.994Z,1.50
2023-03-05T06:20:05.163Z,1.27
2023-03-05T06:22:32.923Z,1.47
2023-03-05T06:25:02.270Z,1.50
2023-03-05T06:27:30.007Z,1.27
2023-03-05T06:29:57.741Z,1.70
2023-03-05T06:32:25.562Z,1.70
2023-03-05T06:34:53.318Z,1.67
2023-03-05T06:37:21.091Z,1.60
2023-03-05T06:39:48.847Z,1.37
2023-03-05T06:42:19.515Z,1.40
2023-03-05T06:44:48.407Z,1.50
2023-03-05T06:47:16.326Z,1.30
2023-03-05T06:49:44.053Z,1.57
2023-03-05T06:52:12.934Z,1.60
2023-03-05T06:54:40.722Z,1.50
2023-03-05T06:57:08.435Z,1.40
2023-03-05T06:59:37.579Z,1.50
2023-03-05T07:02:05.420Z,1.40
2023-03-05T07:04:33.265Z,1.40
2023-03-05T07:07:01.161Z,1.40
2023-03-05T07:09:28.945Z,1.40
2023-03-05T07:11:56.712Z,1.43
2023-03-05T07:14:24.480Z,1.50
2023-03-05T07:16:53.708Z,1.50
2023-03-05T07:19:21.471Z,1.40
2023-03-05T07:21:49.205Z,1.33
2023-03-05T07:24:17.014Z,1.60
2023-03-05T07:26:46.119Z,1.50
2023-03-05T07:29:14.660Z,1.40
2023-03-05T07:31:42.407Z,1.40
2023-03-05T07:34:11.974Z,1.27
2023-03-05T07:36:40.602Z,1.40
2023-03-05T07:39:08.392Z,1.30
2023-03-05T07:41:36.278Z,1.60
2023-03-05T07:44:04.125Z,1.70
2023-03-05T07:46:33.393Z,1.47
2023-03-05T07:49:01.262Z,1.60
2023-03-05T07:51:30.485Z,1.40
2023-03-05T07:53:59.614Z,1.60
2023-03-05T07:56:31.879Z,1.70
2023-03-05T07:59:00.039Z,1.47
2023-03-05T08:01:28.736Z,1.70
2023-03-05T08:03:56.681Z,1.60
2023-03-05T08:06:24.647Z,1.60
2023-03-05T08:08:53.750Z,1.60
2023-03-05T08:11:21.505Z,1.50
2023-03-05T08:13:49.243Z,1.60
2023-03-05T08:16:18.664Z,1.50
2023-03-05T08:18:46.765Z,1.60
2023-03-05T08:21:18.288Z,1.50
2023-03-05T08:23:46.014Z,1.50
2023-03-05T08:26:16.608Z,1.50
2023-03-05T08:28:44.359Z,1.50
2023-03-05T08:31:12.720Z,1.60
2023-03-05T08:33:40.987Z,1.60
2023-03-05T08:36:09.717Z,1.70
2023-03-05T08:38:37.832Z,1.60
2023-03-05T08:41:05.758Z,1.50
2023-03-05T08:43:34.951Z,1.70
2023-03-05T08:46:02.988Z,1.70
2023-03-05T08:48:31.795Z,1.50
2023-03-05T08:50:59.826Z,1.70
2023-03-05T08:53:27.521Z,1.70
2023-03-05T08:55:55.736Z,1.80
2023-03-05T08:58:23.631Z,1.77
2023-03-05T09:00:53.143Z,1.60
2023-03-05T09:03:21.020Z,1.70
2023-03-05T09:05:48.879Z,1.70
2023-03-05T09:08:17.014Z,1.40
2023-03-05T09:10:45.417Z,1.70
2023-03-05T09:13:13.172Z,1.60
2023-03-05T09:15:40.882Z,1.73
2023-03-05T09:18:10.186Z,1.60
2023-03-05T09:20:38.409Z,1.40
2023-03-05T09:23:06.199Z,1.43
2023-03-05T09:25:34.125Z,1.60
2023-03-05T09:28:01.797Z,1.37
2023-03-05T09:30:29.485Z,1.80
2023-03-05T09:32:57.194Z,1.50
2023-03-05T09:35:26.349Z,1.50
2023-03-05T09:37:54.022Z,1.53
2023-03-05T09:40:22.558Z,1.30
2023-03-05T09:43:00.679Z,1.47
2023-03-05T09:45:29.239Z,1.40
2023-03-05T09:48:00.843Z,1.70
2023-03-05T09:50:37.446Z,1.60
2023-03-05T09:53:07.243Z,1.60
2023-03-05T09:55:36.881Z,1.60
2023-03-05T09:58:07.242Z,1.60
2023-03-05T10:00:37.097Z,1.43
2023-03-05T10:03:06.605Z,1.40
2023-03-05T10:05:49.279Z,1.40
2023-03-05T10:08:20.349Z,1.37
2023-03-05T10:10:50.875Z,1.50
2023-03-05T10:13:23.263Z,1.53
2023-03-05T10:15:55.799Z,1.60
2023-03-05T10:18:29.660Z,1.60
2023-03-05T10:21:00.115Z,1.50
2023-03-05T10:23:38.138Z,1.40
2023-03-05T10:26:09.515Z,1.60
2023-03-05T10:28:41.710Z,1.50
2023-03-05T10:31:16.935Z,1.67
2023-03-05T10:33:47.513Z,1.50
2023-03-05T10:36:26.275Z,1.60
2023-03-05T10:39:11.621Z,1.50
2023-03-05T10:41:45.301Z,1.40
2023-03-05T10:44:16.676Z,1.40
2023-03-05T10:46:45.194Z,1.43
2023-03-05T10:49:18.558Z,1.40
2023-03-05T10:51:51.905Z,1.50
2023-03-05T10:54:21.193Z,1.40
2023-03-05T10:56:49.050Z,1.50
2023-03-05T10:59:16.774Z,1.50
2023-03-05T11:02:02.289Z,1.43
2023-03-05T11:04:32.233Z,1.50
2023-03-05T11:07:01.615Z,1.50
2023-03-05T11:09:32.333Z,1.60
2023-03-05T11:12:05.683Z,1.80
2023-03-05T11:14:34.316Z,1.50
2023-03-05T11:17:02.531Z,1.70
2023-03-05T11:19:32.986Z,1.50
2023-03-05T11:22:16.669Z,1.30
2023-03-05T11:24:46.699Z,1.50
2023-03-05T11:27:24.843Z,1.53
2023-03-05T11:29:53.047Z,1.60
2023-03-05T11:32:22.992Z,1.60
2023-03-05T11:34:51.345Z,1.40
2023-03-05T11:37:27.664Z,1.63
2023-03-05T11:40:15.236Z,1.40
2023-03-05T11:42:43.377Z,1.30
2023-03-05T11:45:16.879Z,1.50
2023-03-05T11:47:46.664Z,1.50
2023-03-05T11:50:20.100Z,1.57
2023-03-05T11:52:54.623Z,1.60
2023-03-05T11:55:27.316Z,1.40
2023-03-05T11:58:05.298Z,1.63
2023-03-05T12:00:34.323Z,1.43
2023-03-05T12:03:05.668Z,1.30
2023-03-05T12:05:33.738Z,1.50
2023-03-05T12:08:03.560Z,1.50
2023-03-05T12:10:31.480Z,1.60
2023-03-05T12:13:01.601Z,1.50
2023-03-05T12:15:47.810Z,1.60
2023-03-05T12:18:33.266Z,1.50
2023-03-05T12:21:07.239Z,1.40
2023-03-05T12:23:47.328Z,1.70
2023-03-05T12:26:15.257Z,1.57
2023-03-05T12:28:57.410Z,1.60
2023-03-05T12:31:30.172Z,1.47
2023-03-05T12:33:58.042Z,1.50
2023-03-05T12:36:35.744Z,1.50
2023-03-05T12:39:24.825Z,1.60
2023-03-05T12:41:52.581Z,1.60
2023-03-05T12:44:23.778Z,1.50
2023-03-05T12:47:10.332Z,1.60
2023-03-05T12:49:39.548Z,1.40
2023-03-05T12:52:13.896Z,1.33
2023-03-05T12:54:43.410Z,1.30
2023-03-05T12:57:17.699Z,1.50
2023-03-05T12:59:47.723Z,1.50
2023-03-05T13:02:19.981Z,1.50
2023-03-05T13:04:48.473Z,1.57
2023-03-05T13:07:17.361Z,1.57
2023-03-05T13:09:54.306Z,1.50
2023-03-05T13:12:22.558Z,1.30
2023-03-05T13:14:58.542Z,1.40
2023-03-05T13:17:30.507Z,1.50
2023-03-05T13:19:58.522Z,1.60
2023-03-05T13:22:26.336Z,1.60
2023-03-05T13:25:13.197Z,1.40
2023-03-05T13:27:41.655Z,1.33
2023-03-05T13:30:21.274Z,1.50
2023-03-05T13:32:51.382Z,1.40
2023-03-05T13:35:20.844Z,1.50
2023-03-05T13:37:49.264Z,1.37
2023-03-05T13:40:22.250Z,1.70
2023-03-05T13:42:50.201Z,1.80
2023-03-05T13:45:22.883Z,1.90
2023-03-05T13:47:53.576Z,1.87
2023-03-05T13:50:25.024Z,1.60
2023-03-05T13:52:52.743Z,1.60
2023-03-05T13:55:22.100Z,1.50
2023-03-05T13:57:51.197Z,1.63
2023-03-05T14:00:30.226Z,1.87
2023-03-05T14:02:59.752Z,1.80
2023-03-05T14:05:27.684Z,1.70
2023-03-05T14:07:56.787Z,1.87
2023-03-05T14:10:30.484Z,1.80
2023-03-05T14:12:58.526Z,1.90
2023-03-05T14:15:26.875Z,2.00
2023-03-05T14:17:54.716Z,1.90
2023-03-05T14:20:24.415Z,1.93
2023-03-05T14:22:52.878Z,1.70
2023-03-05T14:25:36.572Z,1.70
2023-03-05T14:28:05.298Z,1.60
2023-03-05T14:30:35.273Z,1.60
2023-03-05T14:33:04.502Z,1.60
2023-03-05T14:35:32.344Z,1.50
2023-03-05T14:38:01.003Z,1.70
2023-03-05T14:40:29.877Z,1.37
2023-03-05T14:42:59.726Z,1.40
2023-03-05T14:45:28.764Z,1.50
2023-03-05T14:47:59.131Z,1.77
2023-03-05T14:50:29.135Z,1.50
2023-03-05T14:52:58.086Z,1.60
2023-03-05T14:55:27.364Z,1.50
2023-03-05T14:57:58.783Z,1.50
2023-03-05T15:00:29.310Z,1.67
2023-03-05T15:02:58.001Z,1.60
2023-03-05T15:05:25.877Z,1.70
2023-03-05T15:07:53.620Z,1.83
2023-03-05T15:10:22.690Z,1.70
2023-03-05T15:12:51.453Z,1.60
2023-03-05T15:15:19.768Z,1.63
2023-03-05T15:17:51.740Z,1.80
2023-03-05T15:20:21.132Z,1.60
2023-03-05T15:22:48.988Z,1.73
2023-03-05T15:25:16.869Z,1.90
2023-03-05T15:27:44.749Z,1.70
2023-03-05T15:30:18.036Z,1.70
2023-03-05T15:32:45.742Z,1.77
2023-03-05T15:35:14.876Z,1.80
2023-03-05T15:37:42.637Z,1.70
2023-03-05T15:40:11.005Z,2.00
2023-03-05T15:42:38.707Z,1.90
2023-03-05T15:45:07.058Z,1.67
2023-03-05T15:47:34.851Z,1.70
2023-03-05T15:50:02.588Z,1.50
2023-03-05T15:52:31.817Z,1.60
2023-03-05T15:55:00.668Z,1.50
2023-03-05T15:57:29.118Z,1.40
2023-03-05T15:59:56.878Z,1.80
2023-03-05T16:02:25.203Z,1.67
2023-03-05T16:04:52.976Z,1.80
2023-03-05T16:07:23.588Z,1.90
2023-03-05T16:09:54.171Z,2.00
2023-03-05T16:12:23.888Z,2.10
2023-03-05T16:14:52.155Z,2.10
2023-03-05T16:17:20.882Z,2.20
2023-03-05T16:19:50.053Z,2.30
2023-03-05T16:22:17.758Z,2.40
2023-03-05T16:24:45.476Z,2.33
2023-03-05T16:27:14.619Z,2.40
2023-03-05T16:29:42.334Z,2.20
2023-03-05T16:32:10.087Z,2.20
2023-03-05T16:34:37.922Z,2.40
2023-03-05T16:37:06.939Z,2.60
2023-03-05T16:39:34.962Z,2.40
2023-03-05T16:42:03.238Z,2.27
2023-03-05T16:44:32.365Z,2.27
2023-03-05T16:47:00.153Z,2.40
2023-03-05T16:49:28.004Z,2.40
2023-03-05T16:51:56.680Z,2.40
2023-03-05T16:54:25.562Z,2.20
2023-03-05T16:56:53.466Z,2.50
2023-03-05T16:59:21.145Z,2.57
2023-03-05T17:01:50.294Z,2.40
2023-03-05T17:04:18.029Z,2.40
2023-03-05T17:06:46.518Z,2.30
2023-03-05T17:09:14.254Z,2.60
2023-03-05T17:11:41.959Z,2.60
2023-03-05T17:14:09.674Z,2.47
2023-03-05T17:16:37.428Z,2.53
2023-03-05T17:19:06.832Z,2.30
2023-03-05T17:21:34.555Z,2.23
2023-03-05T17:24:02.587Z,2.10
2023-03-05T17:26:32.742Z,1.90
2023-03-05T17:29:00.431Z,2.00
2023-03-05T17:31:28.204Z,2.00
2023-03-05T17:33:56.292Z,2.10
2023-03-05T17:36:25.717Z,1.90
2023-03-05T17:38:54.079Z,1.67
2023-03-05T17:41:22.010Z,1.73
2023-03-05T17:43:49.747Z,1.70
2023-03-05T17:46:17.508Z,1.90
2023-03-05T17:48:45.507Z,1.70
2023-03-05T17:51:16.370Z,1.70
2023-03-05T17:53:45.628Z,1.53
2023-03-05T17:56:14.140Z,1.43
2023-03-05T17:58:41.922Z,1.27
2023-03-05T18:01:10.273Z,1.60
2023-03-05T18:03:38.167Z,1.40
2023-03-05T18:06:06.198Z,1.50
2023-03-05T18:08:33.899Z,1.40
2023-03-05T18:11:03.009Z,1.50
2023-03-05T18:13:30.753Z,1.40
2023-03-05T18:15:59.544Z,1.33
2023-03-05T18:18:27.399Z,1.50
2023-03-05T18:20:55.208Z,1.70
2023-03-05T18:23:22.911Z,1.50
2023-03-05T18:25:50.641Z,1.50
2023-03-05T18:28:19.818Z,1.40
2023-03-05T18:30:47.646Z,1.30
2023-03-05T18:33:16.967Z,1.40
2023-03-05T18:35:44.756Z,1.40
2023-03-05T18:38:12.530Z,1.40
2023-03-05T18:40:40.773Z,1.50
2023-03-05T18:43:08.497Z,1.30
2023-03-05T18:45:37.621Z,1.40
2023-03-05T18:48:05.509Z,1.40
2023-03-05T18:50:33.232Z,1.53
2023-03-05T18:53:00.941Z,1.43
2023-03-05T18:55:29.601Z,1.60
2023-03-05T18:57:57.469Z,1.40
2023-03-05T19:00:26.165Z,1.50
2023-03-05T19:02:55.578Z,1.40
2023-03-05T19:05:23.503Z,1.60
2023-03-05T19:07:51.214Z,1.40
2023-03-05T19:10:19.317Z,1.50
2023-03-05T19:12:51.061Z,1.60
2023-03-05T19:15:18.999Z,1.60
2023-03-05T19:17:47.920Z,1.30
2023-03-05T19:20:18.252Z,1.40
2023-03-05T19:22:50.825Z,1.40
2023-03-05T19:25:19.239Z,1.60
2023-03-05T19:27:47.011Z,1.70
2023-03-05T19:30:16.351Z,1.60
2023-03-05T19:32:47.179Z,1.40
2023-03-05T19:35:15.457Z,1.57
2023-03-05T19:37:43.232Z,1.50
2023-03-05T19:40:13.191Z,1.50
2023-03-05T19:42:40.870Z,1.70
2023-03-05T19:45:09.266Z,1.60
2023-03-05T19:47:37.060Z,1.70
2023-03-05T19:50:05.499Z,1.73
2023-03-05T19:52:33.202Z,1.90
2023-03-05T19:55:01.041Z,1.53
2023-03-05T19:57:30.184Z,1.60
2023-03-05T19:59:57.902Z,1.60
2023-03-05T20:02:25.659Z,1.50
2023-03-05T20:04:55.597Z,1.60
2023-03-05T20:07:23.314Z,1.57
2023-03-05T20:09:53.227Z,1.70
2023-03-05T20:12:21.084Z,1.40
2023-03-05T20:14:50.183Z,1.30
2023-03-05T20:17:17.873Z,1.40
2023-03-05T20:19:45.572Z,1.53
2023-03-05T20:22:13.261Z,1.47
2023-03-05T20:24:41.024Z,1.50
2023-03-05T20:27:08.728Z,1.47
2023-03-05T20:29:36.382Z,1.60
2023-03-05T20:32:05.748Z,1.57
2023-03-05T20:34:33.459Z,1.50
2023-03-05T20:37:01.211Z,1.40
2023-03-05T20:39:28.917Z,1.50
2023-03-05T20:41:56.586Z,1.50
2023-03-05T20:44:24.322Z,1.50
2023-03-05T20:47:02.649Z,1.27
2023-03-05T20:49:31.868Z,1.50
2023-03-05T20:51:59.575Z,1.50
2023-03-05T20:54:28.203Z,1.50
2023-03-05T20:56:55.927Z,1.50
2023-03-05T20:59:24.829Z,1.50
2023-03-05T21:01:52.531Z,1.40
2023-03-05T21:04:20.249Z,1.57
2023-03-05T21:06:52.980Z,1.60
2023-03-05T21:09:20.671Z,1.63
2023-03-05T21:11:48.664Z,1.50
2023-03-05T21:14:16.368Z,1.80
2023-03-05T21:16:44.112Z,1.50
2023-03-05T21:19:11.852Z,1.57
2023-03-05T21:21:44.793Z,1.50
2023-03-05T21:24:16.598Z,1.60
2023-03-05T21:26:44.288Z,1.43
2023-03-05T21:29:12.041Z,1.70
2023-03-05T21:31:39.795Z,1.50
2023-03-05T21:34:07.505Z,1.30
2023-03-05T21:36:35.261Z,1.40
2023-03-05T21:39:02.985Z,1.50
2023-03-05T21:41:32.107Z,1.53
2023-03-05T21:44:04.039Z,1.40
2023-03-05T21:46:31.828Z,1.50
2023-03-05T21:48:59.564Z,1.40
2023-03-05T21:51:38.467Z,1.77
2023-03-05T21:54:06.361Z,1.80
2023-03-05T21:56:35.484Z,1.80
2023-03-05T21:59:03.209Z,1.70
2023-03-05T22:01:30.990Z,1.83
2023-03-05T22:03:58.776Z,1.80
2023-03-05T22:06:26.808Z,1.80
2023-03-05T22:08:54.513Z,1.97
2023-03-05T22:11:22.514Z,1.97
2023-03-05T22:13:51.652Z,1.80
2023-03-05T22:16:23.720Z,1.60
2023-03-05T22:18:51.878Z,1.70
2023-03-05T22:21:20.774Z,1.77
2023-03-05T22:23:48.556Z,1.90
2023-03-05T22:26:16.302Z,1.80
2023-03-05T22:28:44.060Z,1.80
2023-03-05T22:31:13.264Z,1.80
2023-03-05T22:33:41.025Z,2.00
2023-03-05T22:36:09.562Z,1.83
2023-03-05T22:38:37.268Z,1.60
2023-03-05T22:41:08.210Z,1.90
2023-03-05T22:43:35.883Z,1.70
2023-03-05T22:46:09.602Z,1.70
2023-03-05T22:48:38.691Z,1.80
2023-03-05T22:51:06.778Z,2.10
2023-03-05T22:53:34.460Z,2.00
2023-03-05T22:56:06.071Z,1.90
2023-03-05T22:58:33.788Z,1.90
2023-03-05T23:01:01.534Z,1.90
2023-03-05T23:03:29.381Z,1.80
2023-03-05T23:05:58.459Z,1.80
2023-03-05T23:08:26.161Z,1.87
2023-03-05T23:10:53.890Z,1.80
2023-03-05T23:13:21.699Z,1.83
2023-03-05T23:15:49.434Z,1.93
2023-03-05T23:18:17.088Z,1.90
2023-03-05T23:20:44.971Z,1.90
2023-03-05T23:23:14.068Z,1.70
2023-03-05T23:25:41.824Z,1.80
2023-03-05T23:28:09.581Z,1.60
2023-03-05T23:30:39.502Z,1.70
2023-03-05T23:33:08.089Z,1.87
2023-03-05T23:35:36.857Z,1.70
2023-03-05T23:38:05.761Z,1.63
2023-03-05T23:40:35.802Z,1.87
2023-03-05T23:43:03.997Z,1.70
2023-03-05T23:45:31.908Z,1.70
2023-03-05T23:47:59.619Z,1.70
2023-03-05T23:50:28.657Z,1.67
2023-03-05T23:52:56.413Z,1.83
2023-03-05T23:55:25.235Z,1.73
2023-03-05T23:57:54.695Z,1.90
